Vb Andalucia — ECFI — position and weather

sailwx.info

Track history (hours):
 
Tides and Currents Weather Stations Pressure Air Temp Water Temp Dewpoint Dewpoint Depression Visibility Wind Speed Wind Dir Waves Ship Positions

Vb Andalucia

Last reported at 2018-Mar-16 02:39 UTC. Time now 2018-Apr-20 16:45 UTC.
Position N 35°58' W 005°35'.
Warning: this ship's position is 35 days out of date.

Type: Tug. MMSI: 224117450.

Date/timePositionNaut miles runAvg speedWind from/ knotsBaromVisibWave heightAir tempDewpointWater temp
2018-Mar-16 02:39N 35°58' W 005°35'1 8.2
2018-Mar-16 02:30N 35°58' W 005°33'4 8.0
2018-Mar-16 02:00N 35°59' W 005°29'4 7.8
2018-Mar-16 01:28N 36°02' W 005°25'4 8.9
2018-Mar-16 01:00N 36°06' W 005°24'2 3.7
2018-Mar-16 00:22N 36°08' W 005°26'0 0.0
2018-Mar-16 00:00N 36°08' W 005°26'0 0.0
2018-Mar-15 04:24N 36°08' W 005°26'0 0.0
2018-Mar-15 03:57N 36°08' W 005°26'0 0.0
2018-Mar-15 03:28N 36°08' W 005°26'0 0.0
2018-Mar-15 02:59N 36°08' W 005°26'0 0.0
2018-Mar-15 02:30N 36°08' W 005°26'0 0.0
2018-Mar-15 01:59N 36°08' W 005°26'0 0.5
2018-Mar-15 01:25N 36°08' W 005°26'0 0.6
2018-Mar-15 00:59N 36°08' W 005°26'0 0.0
2018-Mar-15 00:28N 36°08' W 005°26'0 0.0
2018-Mar-15 00:00N 36°08' W 005°26'0 0.0
2018-Mar-14 23:30N 36°08' W 005°26'0 0.0
2018-Mar-14 23:00N 36°08' W 005°26'0 0.0
2018-Mar-14 22:06N 36°08' W 005°26'0 1.2
2018-Mar-14 22:00N 36°08' W 005°26'0 0.0
2018-Mar-14 18:11N 36°08' W 005°26'0 0.4
2018-Mar-14 17:54N 36°08' W 005°26'1 0.1
2018-Mar-14 08:22N 36°09' W 005°26'1 0.3
2018-Mar-14 06:32N 36°08' W 005°26'0 0.0
2018-Mar-14 06:28N 36°08' W 005°26'0 0.0
2018-Mar-14 04:49N 36°08' W 005°26'0 0.0
2018-Mar-14 04:29N 36°08' W 005°26'0 0.0
2018-Mar-14 04:00N 36°08' W 005°26'0 0.0
2018-Mar-14 03:29N 36°08' W 005°26'0 0.0
2018-Mar-14 02:43N 36°08' W 005°26'0 0.0
2018-Mar-14 02:28N 36°08' W 005°26'0 0.0
2018-Mar-14 02:00N 36°08' W 005°26'0 0.0
2018-Mar-14 01:26N 36°08' W 005°26'0 0.0
2018-Mar-14 01:00N 36°08' W 005°26'0 0.0
2018-Mar-14 00:29N 36°08' W 005°26'0 0.0
2018-Mar-13 23:47N 36°08' W 005°26'0 0.0
2018-Mar-13 20:38N 36°08' W 005°26'0 0.2
2018-Mar-13 18:20N 36°08' W 005°25'0 0.1
2018-Mar-13 15:21N 36°08' W 005°26'1 0.4
2018-Mar-13 13:11N 36°09' W 005°26'0 1.4
2018-Mar-13 12:57N 36°08' W 005°26'0 0.3
2018-Mar-13 12:20N 36°09' W 005°26'0 0.1
2018-Mar-13 10:21N 36°08' W 005°26'3 0.3
2018-Mar-12 23:46N 36°11' W 005°24'0 0.8
2018-Mar-12 23:26N 36°11' W 005°23'0 0.1
2018-Mar-12 22:56N 36°11' W 005°24'1 1.8
2018-Mar-12 22:30N 36°11' W 005°24'1 1.5
2018-Mar-12 21:48N 36°10' W 005°25'2 2.1
2018-Mar-12 21:02N 36°08' W 005°25'0 6.3
2018-Mar-12 20:58N 36°08' W 005°25'1 0.1
2018-Mar-12 07:31N 36°09' W 005°26'0 9.6
2018-Mar-12 07:28N 36°08' W 005°26'0 0.2
2018-Mar-12 07:00N 36°08' W 005°26'2 0.2
2018-Mar-11 22:07N 36°09' W 005°24'0 0.6
2018-Mar-11 21:51N 36°09' W 005°24'2 4.3
2018-Mar-11 21:23N 36°08' W 005°25'0 0.1
2018-Mar-11 21:00N 36°08' W 005°25'0 0.4
2018-Mar-11 20:28N 36°07' W 005°25'0 0.0
2018-Mar-11 20:00N 36°07' W 005°25'0 0.0
2018-Mar-11 19:29N 36°07' W 005°25'1 0.6
2018-Mar-11 18:07N 36°08' W 005°26'0 0.0
2018-Mar-11 18:00N 36°08' W 005°26'0 0.8
2018-Mar-11 17:28N 36°08' W 005°25'0 0.4
2018-Mar-11 16:59N 36°08' W 005°25'0 0.5
2018-Mar-11 16:03N 36°08' W 005°25'0 4.4
2018-Mar-11 15:58N 36°08' W 005°25'1 1.8
2018-Mar-11 15:29N 36°09' W 005°26'1 1.2
2018-Mar-11 14:59N 36°08' W 005°26'0 0.0
2018-Mar-11 14:30N 36°08' W 005°26'0 0.0
2018-Mar-11 14:00N 36°08' W 005°26'0 0.0
2018-Mar-11 12:38N 36°08' W 005°26'0 0.0
2018-Mar-11 11:00N 36°08' W 005°26'0 0.0
2018-Mar-11 10:28N 36°08' W 005°26'0 0.6
2018-Mar-11 09:57N 36°08' W 005°26'0 0.1
2018-Mar-11 08:08N 36°08' W 005°26'1 3.1
2018-Mar-11 07:40N 36°08' W 005°24'1 4.2
2018-Mar-11 07:27N 36°08' W 005°25'1 0.7
2018-Mar-11 06:11N 36°08' W 005°26'0 0.0
2018-Mar-11 05:59N 36°08' W 005°26'0 0.4
2018-Mar-11 05:28N 36°08' W 005°26'0 0.5
2018-Mar-11 05:00N 36°08' W 005°26'0 0.0
2018-Mar-11 04:30N 36°08' W 005°26'0 0.0
2018-Mar-11 03:58N 36°08' W 005°26'0 0.0
2018-Mar-11 03:29N 36°08' W 005°26'0 0.0
2018-Mar-11 03:00N 36°08' W 005°26'0 0.0
2018-Mar-11 02:30N 36°08' W 005°26'1 1.0
2018-Mar-11 01:57N 36°08' W 005°25'1 2.0
2018-Mar-11 01:14N 36°08' W 005°24'2 5.0
2018-Mar-11 00:54N 36°09' W 005°26'1 1.7
2018-Mar-11 00:30N 36°08' W 005°26'0 0.0
2018-Mar-10 23:58N 36°08' W 005°26'0 0.0
2018-Mar-10 23:30N 36°08' W 005°26'0 0.0
2018-Mar-10 23:00N 36°08' W 005°26'0 0.0
2018-Mar-10 22:29N 36°08' W 005°26'1 1.5
2018-Mar-10 21:59N 36°09' W 005°26'1 2.1
2018-Mar-10 21:30N 36°08' W 005°25'1 2.3
2018-Mar-10 20:55N 36°08' W 005°24'2 3.9
2018-Mar-10 20:25N 36°09' W 005°26'1 1.4
2018-Mar-10 20:00N 36°08' W 005°26'0 0.0
2018-Mar-10 19:29N 36°08' W 005°26'0 0.0
2018-Mar-10 19:00N 36°08' W 005°26'0 0.0
2018-Mar-10 18:30N 36°08' W 005°26'0 0.0
2018-Mar-10 16:28N 36°08' W 005°26'0 0.0
2018-Mar-10 16:00N 36°08' W 005°26'0 0.0
2018-Mar-10 15:29N 36°08' W 005°26'0 0.1
2018-Mar-10 15:00N 36°08' W 005°26'0 0.1
2018-Mar-10 14:30N 36°08' W 005°26'0 0.0
2018-Mar-10 14:00N 36°08' W 005°26'0 0.0
2018-Mar-10 13:30N 36°08' W 005°26'0 0.0
2018-Mar-10 04:09N 36°08' W 005°26'0 0.0
2018-Mar-10 04:00N 36°08' W 005°26'0 0.0
2018-Mar-10 03:30N 36°08' W 005°26'0 0.9
2018-Mar-10 02:59N 36°08' W 005°25'1 1.2
2018-Mar-10 02:04N 36°09' W 005°26'0 6.1
2018-Mar-10 02:00N 36°09' W 005°26'1 1.2
2018-Mar-10 01:30N 36°08' W 005°26'0 0.1
2018-Mar-10 00:54N 36°08' W 005°26'0 0.0
2018-Mar-10 00:30N 36°08' W 005°26'0 0.0
2018-Mar-10 00:00N 36°08' W 005°26'0 0.0
2018-Mar-09 23:05N 36°08' W 005°26'1 8.5
2018-Mar-09 23:00N 36°09' W 005°26'1 1.3
2018-Mar-09 22:30N 36°08' W 005°26'0 0.0
2018-Mar-09 21:56N 36°08' W 005°26'0 0.0
2018-Mar-09 21:30N 36°08' W 005°26'0 0.0
2018-Mar-09 21:00N 36°08' W 005°26'0 0.0
2018-Mar-09 20:18N 36°08' W 005°26'0 0.0
2018-Mar-09 19:55N 36°08' W 005°26'0 0.0
2018-Mar-09 19:29N 36°08' W 005°26'0 0.0
2018-Mar-09 19:00N 36°08' W 005°26'0 0.0
2018-Mar-09 18:24N 36°08' W 005°26'0 0.0
2018-Mar-09 18:00N 36°08' W 005°26'0 0.0
2018-Mar-09 17:29N 36°08' W 005°26'0 0.0
2018-Mar-09 11:47N 36°08' W 005°26'0 0.0
2018-Mar-09 11:28N 36°08' W 005°26'0 0.0
2018-Mar-09 10:56N 36°08' W 005°26'1 0.2
2018-Mar-09 08:35N 36°08' W 005°26'0 2.7
2018-Mar-09 08:30N 36°09' W 005°26'1 2.1
2018-Mar-09 07:54N 36°08' W 005°25'1 0.1
2018-Mar-09 03:49N 36°08' W 005°26'0 0.0
2018-Mar-09 00:48N 36°08' W 005°26'1 0.8
2018-Mar-08 23:45N 36°09' W 005°26'1 3.9
2018-Mar-08 23:27N 36°09' W 005°24'1 0.1
2018-Mar-07 21:42N 36°08' W 005°26'0 0.0
2018-Mar-07 20:39N 36°08' W 005°26'0 0.0
2018-Mar-07 20:30N 36°08' W 005°26'1 0.3
2018-Mar-07 17:37N 36°07' W 005°25'0 1.4
2018-Mar-07 17:22N 36°08' W 005°25'1 0.1
2018-Mar-07 08:16N 36°08' W 005°26'0 0.2
2018-Mar-07 06:50N 36°08' W 005°26'1 1.5
2018-Mar-07 06:30N 36°08' W 005°26'0 0.6
2018-Mar-07 06:00N 36°09' W 005°26'1 1.3
2018-Mar-07 05:30N 36°08' W 005°26'0 0.0
2018-Mar-07 04:59N 36°08' W 005°26'0 0.0
2018-Mar-07 04:14N 36°08' W 005°26'0 0.0
2018-Mar-07 03:40N 36°08' W 005°26'0 0.0
2018-Mar-07 03:29N 36°08' W 005°26'0 0.0
2018-Mar-07 02:58N 36°08' W 005°26'1 0.1
2018-Mar-06 20:22N 36°09' W 005°26'1 0.5
2018-Mar-06 18:57N 36°08' W 005°26'0 0.0
2018-Mar-06 18:17N 36°08' W 005°26'0 0.0
2018-Mar-06 17:58N 36°08' W 005°26'0 0.0
2018-Mar-06 17:30N 36°08' W 005°26'0 0.0
2018-Mar-06 16:34N 36°08' W 005°26'0 0.0
2018-Mar-06 16:22N 36°08' W 005°26'0 0.0
2018-Mar-06 04:54N 36°08' W 005°26'  
Track history (hours):
 
Tides and Currents Weather Stations Pressure Air Temp Water Temp Dewpoint Dewpoint Depression Visibility Wind Speed Wind Dir Waves Ship Positions

Vb Andalucia

Last reported at 2018-Mar-16 02:39 UTC. Time now 2018-Apr-20 16:45 UTC.
Position N 35°58' W 005°35'.
Warning: this ship's position is 35 days out of date.

Type: Tug. MMSI: 224117450.

Date/timePositionNaut miles runAvg speedWind from/ knotsBaromVisibWave heightAir tempDewpointWater temp
2018-Mar-16 02:39N 35°58' W 005°35'1 8.2
2018-Mar-16 02:30N 35°58' W 005°33'4 8.0
2018-Mar-16 02:00N 35°59' W 005°29'4 7.8
2018-Mar-16 01:28N 36°02' W 005°25'4 8.9
2018-Mar-16 01:00N 36°06' W 005°24'2 3.7
2018-Mar-16 00:22N 36°08' W 005°26'0 0.0
2018-Mar-16 00:00N 36°08' W 005°26'0 0.0
2018-Mar-15 04:24N 36°08' W 005°26'0 0.0
2018-Mar-15 03:57N 36°08' W 005°26'0 0.0
2018-Mar-15 03:28N 36°08' W 005°26'0 0.0
2018-Mar-15 02:59N 36°08' W 005°26'0 0.0
2018-Mar-15 02:30N 36°08' W 005°26'0 0.0
2018-Mar-15 01:59N 36°08' W 005°26'0 0.5
2018-Mar-15 01:25N 36°08' W 005°26'0 0.6
2018-Mar-15 00:59N 36°08' W 005°26'0 0.0
2018-Mar-15 00:28N 36°08' W 005°26'0 0.0
2018-Mar-15 00:00N 36°08' W 005°26'0 0.0
2018-Mar-14 23:30N 36°08' W 005°26'0 0.0
2018-Mar-14 23:00N 36°08' W 005°26'0 0.0
2018-Mar-14 22:06N 36°08' W 005°26'0 1.2
2018-Mar-14 22:00N 36°08' W 005°26'0 0.0
2018-Mar-14 18:11N 36°08' W 005°26'0 0.4
2018-Mar-14 17:54N 36°08' W 005°26'1 0.1
2018-Mar-14 08:22N 36°09' W 005°26'1 0.3
2018-Mar-14 06:32N 36°08' W 005°26'0 0.0
2018-Mar-14 06:28N 36°08' W 005°26'0 0.0
2018-Mar-14 04:49N 36°08' W 005°26'0 0.0
2018-Mar-14 04:29N 36°08' W 005°26'0 0.0
2018-Mar-14 04:00N 36°08' W 005°26'0 0.0
2018-Mar-14 03:29N 36°08' W 005°26'0 0.0
2018-Mar-14 02:43N 36°08' W 005°26'0 0.0
2018-Mar-14 02:28N 36°08' W 005°26'0 0.0
2018-Mar-14 02:00N 36°08' W 005°26'0 0.0
2018-Mar-14 01:26N 36°08' W 005°26'0 0.0
2018-Mar-14 01:00N 36°08' W 005°26'0 0.0
2018-Mar-14 00:29N 36°08' W 005°26'0 0.0
2018-Mar-13 23:47N 36°08' W 005°26'0 0.0
2018-Mar-13 20:38N 36°08' W 005°26'0 0.2
2018-Mar-13 18:20N 36°08' W 005°25'0 0.1
2018-Mar-13 15:21N 36°08' W 005°26'1 0.4
2018-Mar-13 13:11N 36°09' W 005°26'0 1.4
2018-Mar-13 12:57N 36°08' W 005°26'0 0.3
2018-Mar-13 12:20N 36°09' W 005°26'0 0.1
2018-Mar-13 10:21N 36°08' W 005°26'3 0.3
2018-Mar-12 23:46N 36°11' W 005°24'0 0.8
2018-Mar-12 23:26N 36°11' W 005°23'0 0.1
2018-Mar-12 22:56N 36°11' W 005°24'1 1.8
2018-Mar-12 22:30N 36°11' W 005°24'1 1.5
2018-Mar-12 21:48N 36°10' W 005°25'2 2.1
2018-Mar-12 21:02N 36°08' W 005°25'0 6.3
2018-Mar-12 20:58N 36°08' W 005°25'1 0.1
2018-Mar-12 07:31N 36°09' W 005°26'0 9.6
2018-Mar-12 07:28N 36°08' W 005°26'0 0.2
2018-Mar-12 07:00N 36°08' W 005°26'2 0.2
2018-Mar-11 22:07N 36°09' W 005°24'0 0.6
2018-Mar-11 21:51N 36°09' W 005°24'2 4.3
2018-Mar-11 21:23N 36°08' W 005°25'0 0.1
2018-Mar-11 21:00N 36°08' W 005°25'0 0.4
2018-Mar-11 20:28N 36°07' W 005°25'0 0.0
2018-Mar-11 20:00N 36°07' W 005°25'0 0.0
2018-Mar-11 19:29N 36°07' W 005°25'1 0.6
2018-Mar-11 18:07N 36°08' W 005°26'0 0.0
2018-Mar-11 18:00N 36°08' W 005°26'0 0.8
2018-Mar-11 17:28N 36°08' W 005°25'0 0.4
2018-Mar-11 16:59N 36°08' W 005°25'0 0.5
2018-Mar-11 16:03N 36°08' W 005°25'0 4.4
2018-Mar-11 15:58N 36°08' W 005°25'1 1.8
2018-Mar-11 15:29N 36°09' W 005°26'1 1.2
2018-Mar-11 14:59N 36°08' W 005°26'0 0.0
2018-Mar-11 14:30N 36°08' W 005°26'0 0.0
2018-Mar-11 14:00N 36°08' W 005°26'0 0.0
2018-Mar-11 12:38N 36°08' W 005°26'0 0.0
2018-Mar-11 11:00N 36°08' W 005°26'0 0.0
2018-Mar-11 10:28N 36°08' W 005°26'0 0.6
2018-Mar-11 09:57N 36°08' W 005°26'0 0.1
2018-Mar-11 08:08N 36°08' W 005°26'1 3.1
2018-Mar-11 07:40N 36°08' W 005°24'1 4.2
2018-Mar-11 07:27N 36°08' W 005°25'1 0.7
2018-Mar-11 06:11N 36°08' W 005°26'0 0.0
2018-Mar-11 05:59N 36°08' W 005°26'0 0.4
2018-Mar-11 05:28N 36°08' W 005°26'0 0.5
2018-Mar-11 05:00N 36°08' W 005°26'0 0.0
2018-Mar-11 04:30N 36°08' W 005°26'0 0.0
2018-Mar-11 03:58N 36°08' W 005°26'0 0.0
2018-Mar-11 03:29N 36°08' W 005°26'0 0.0
2018-Mar-11 03:00N 36°08' W 005°26'0 0.0
2018-Mar-11 02:30N 36°08' W 005°26'1 1.0
2018-Mar-11 01:57N 36°08' W 005°25'1 2.0
2018-Mar-11 01:14N 36°08' W 005°24'2 5.0
2018-Mar-11 00:54N 36°09' W 005°26'1 1.7
2018-Mar-11 00:30N 36°08' W 005°26'0 0.0
2018-Mar-10 23:58N 36°08' W 005°26'0 0.0
2018-Mar-10 23:30N 36°08' W 005°26'0 0.0
2018-Mar-10 23:00N 36°08' W 005°26'0 0.0
2018-Mar-10 22:29N 36°08' W 005°26'1 1.5
2018-Mar-10 21:59N 36°09' W 005°26'1 2.1
2018-Mar-10 21:30N 36°08' W 005°25'1 2.3
2018-Mar-10 20:55N 36°08' W 005°24'2 3.9
2018-Mar-10 20:25N 36°09' W 005°26'1 1.4
2018-Mar-10 20:00N 36°08' W 005°26'0 0.0
2018-Mar-10 19:29N 36°08' W 005°26'0 0.0
2018-Mar-10 19:00N 36°08' W 005°26'0 0.0
2018-Mar-10 18:30N 36°08' W 005°26'0 0.0
2018-Mar-10 16:28N 36°08' W 005°26'0 0.0
2018-Mar-10 16:00N 36°08' W 005°26'0 0.0
2018-Mar-10 15:29N 36°08' W 005°26'0 0.1
2018-Mar-10 15:00N 36°08' W 005°26'0 0.1
2018-Mar-10 14:30N 36°08' W 005°26'0 0.0
2018-Mar-10 14:00N 36°08' W 005°26'0 0.0
2018-Mar-10 13:30N 36°08' W 005°26'0 0.0
2018-Mar-10 04:09N 36°08' W 005°26'0 0.0
2018-Mar-10 04:00N 36°08' W 005°26'0 0.0
2018-Mar-10 03:30N 36°08' W 005°26'0 0.9
2018-Mar-10 02:59N 36°08' W 005°25'1 1.2
2018-Mar-10 02:04N 36°09' W 005°26'0 6.1
2018-Mar-10 02:00N 36°09' W 005°26'1 1.2
2018-Mar-10 01:30N 36°08' W 005°26'0 0.1
2018-Mar-10 00:54N 36°08' W 005°26'0 0.0
2018-Mar-10 00:30N 36°08' W 005°26'0 0.0
2018-Mar-10 00:00N 36°08' W 005°26'0 0.0
2018-Mar-09 23:05N 36°08' W 005°26'1 8.5
2018-Mar-09 23:00N 36°09' W 005°26'1 1.3
2018-Mar-09 22:30N 36°08' W 005°26'0 0.0
2018-Mar-09 21:56N 36°08' W 005°26'0 0.0
2018-Mar-09 21:30N 36°08' W 005°26'0 0.0
2018-Mar-09 21:00N 36°08' W 005°26'0 0.0
2018-Mar-09 20:18N 36°08' W 005°26'0 0.0
2018-Mar-09 19:55N 36°08' W 005°26'0 0.0
2018-Mar-09 19:29N 36°08' W 005°26'0 0.0
2018-Mar-09 19:00N 36°08' W 005°26'0 0.0
2018-Mar-09 18:24N 36°08' W 005°26'0 0.0
2018-Mar-09 18:00N 36°08' W 005°26'0 0.0
2018-Mar-09 17:29N 36°08' W 005°26'0 0.0
2018-Mar-09 11:47N 36°08' W 005°26'0 0.0
2018-Mar-09 11:28N 36°08' W 005°26'0 0.0
2018-Mar-09 10:56N 36°08' W 005°26'1 0.2
2018-Mar-09 08:35N 36°08' W 005°26'0 2.7
2018-Mar-09 08:30N 36°09' W 005°26'1 2.1
2018-Mar-09 07:54N 36°08' W 005°25'1 0.1
2018-Mar-09 03:49N 36°08' W 005°26'0 0.0
2018-Mar-09 00:48N 36°08' W 005°26'1 0.8
2018-Mar-08 23:45N 36°09' W 005°26'1 3.9
2018-Mar-08 23:27N 36°09' W 005°24'1 0.1
2018-Mar-07 21:42N 36°08' W 005°26'0 0.0
2018-Mar-07 20:39N 36°08' W 005°26'0 0.0
2018-Mar-07 20:30N 36°08' W 005°26'1 0.3
2018-Mar-07 17:37N 36°07' W 005°25'0 1.4
2018-Mar-07 17:22N 36°08' W 005°25'1 0.1
2018-Mar-07 08:16N 36°08' W 005°26'0 0.2
2018-Mar-07 06:50N 36°08' W 005°26'1 1.5
2018-Mar-07 06:30N 36°08' W 005°26'0 0.6
2018-Mar-07 06:00N 36°09' W 005°26'1 1.3
2018-Mar-07 05:30N 36°08' W 005°26'0 0.0
2018-Mar-07 04:59N 36°08' W 005°26'0 0.0
2018-Mar-07 04:14N 36°08' W 005°26'0 0.0
2018-Mar-07 03:40N 36°08' W 005°26'0 0.0
2018-Mar-07 03:29N 36°08' W 005°26'0 0.0
2018-Mar-07 02:58N 36°08' W 005°26'1 0.1
2018-Mar-06 20:22N 36°09' W 005°26'1 0.5
2018-Mar-06 18:57N 36°08' W 005°26'0 0.0
2018-Mar-06 18:17N 36°08' W 005°26'0 0.0
2018-Mar-06 17:58N 36°08' W 005°26'0 0.0
2018-Mar-06 17:30N 36°08' W 005°26'0 0.0
2018-Mar-06 16:34N 36°08' W 005°26'0 0.0
2018-Mar-06 16:22N 36°08' W 005°26'0 0.0
2018-Mar-06 04:54N 36°08' W 005°26'  

Dump ship's entire track history